sensor_id;sensor_type;location;lat;lon;timestamp;pressure;altitude;pressure_sealevel;temperature;humidity
36664;BME280;53333;51.976;20.144;2023-02-28T00:02:10;101671.75;;;0.33;55.50
36664;BME280;53333;51.976;20.144;2023-02-28T00:04:43;101677.84;;;0.30;55.54
36664;BME280;53333;51.976;20.144;2023-02-28T00:07:16;101673.38;;;0.26;55.63
36664;BME280;53333;51.976;20.144;2023-02-28T00:09:49;101668.91;;;0.22;55.64
36664;BME280;53333;51.976;20.144;2023-02-28T00:12:23;101664.47;;;0.18;55.71
36664;BME280;53333;51.976;20.144;2023-02-28T00:14:56;101669.66;;;0.13;55.73
36664;BME280;53333;51.976;20.144;2023-02-28T00:17:29;101668.72;;;0.10;55.66
36664;BME280;53333;51.976;20.144;2023-02-28T00:20:02;101669.47;;;0.04;55.84
36664;BME280;53333;51.976;20.144;2023-02-28T00:22:36;101662.38;;;-0.02;55.86
36664;BME280;53333;51.976;20.144;2023-02-28T00:25:09;101672.78;;;-0.08;55.93
36664;BME280;53333;51.976;20.144;2023-02-28T00:27:44;101670.97;;;-0.10;55.74
36664;BME280;53333;51.976;20.144;2023-02-28T00:30:17;101677.03;;;-0.13;55.92
36664;BME280;53333;51.976;20.144;2023-02-28T00:32:51;101677.00;;;-0.16;55.89
36664;BME280;53333;51.976;20.144;2023-02-28T00:35:23;101676.94;;;-0.19;55.87
36664;BME280;53333;51.976;20.144;2023-02-28T00:37:56;101672.50;;;-0.22;55.84
36664;BME280;53333;51.976;20.144;2023-02-28T00:40:31;101672.47;;;-0.23;55.87
36664;BME280;53333;51.976;20.144;2023-02-28T00:43:05;101675.91;;;-0.26;55.82
36664;BME280;53333;51.976;20.144;2023-02-28T00:45:38;101671.53;;;-0.27;55.81
36664;BME280;53333;51.976;20.144;2023-02-28T00:48:11;101672.41;;;-0.26;55.90
36664;BME280;53333;51.976;20.144;2023-02-28T00:50:43;101666.22;;;-0.30;55.78
36664;BME280;53333;51.976;20.144;2023-02-28T00:53:16;101671.41;;;-0.33;55.79
36664;BME280;53333;51.976;20.144;2023-02-28T00:55:50;101670.41;;;-0.40;55.87
36664;BME280;53333;51.976;20.144;2023-02-28T00:58:24;101665.94;;;-0.44;55.85
36664;BME280;53333;51.976;20.144;2023-02-28T01:00:57;101672.88;;;-0.47;55.94
36664;BME280;53333;51.976;20.144;2023-02-28T01:03:30;101675.44;;;-0.50;55.89
36664;BME280;53333;51.976;20.144;2023-02-28T01:06:03;101676.16;;;-0.56;55.86
36664;BME280;53333;51.976;20.144;2023-02-28T01:08:35;101676.94;;;-0.62;56.02
36664;BME280;53333;51.976;20.144;2023-02-28T01:11:09;101682.03;;;-0.69;56.03
36664;BME280;53333;51.976;20.144;2023-02-28T01:13:45;101679.31;;;-0.74;56.01
36664;BME280;53333;51.976;20.144;2023-02-28T01:16:18;101672.13;;;-0.83;56.15
36664;BME280;53333;51.976;20.144;2023-02-28T01:18:51;101681.59;;;-0.88;56.12
36664;BME280;53333;51.976;20.144;2023-02-28T01:21:24;101671.84;;;-0.95;56.16
36664;BME280;53333;51.976;20.144;2023-02-28T01:23:57;101673.41;;;-1.03;56.30
36664;BME280;53333;51.976;20.144;2023-02-28T01:26:30;101677.69;;;-1.08;56.39
36664;BME280;53333;51.976;20.144;2023-02-28T01:29:05;101676.59;;;-1.17;56.40
36664;BME280;53333;51.976;20.144;2023-02-28T01:31:37;101679.09;;;-1.21;56.31
36664;BME280;53333;51.976;20.144;2023-02-28T01:34:12;101677.22;;;-1.27;56.37
36664;BME280;53333;51.976;20.144;2023-02-28T01:36:45;101670.06;;;-1.34;56.48
36664;BME280;53333;51.976;20.144;2023-02-28T01:39:17;101679.56;;;-1.39;56.36
36664;BME280;53333;51.976;20.144;2023-02-28T01:41:50;101677.72;;;-1.43;56.40
36664;BME280;53333;51.976;20.144;2023-02-28T01:47:16;101675.66;;;-1.55;56.65
36664;BME280;53333;51.976;20.144;2023-02-28T01:49:48;101678.16;;;-1.60;56.63
36664;BME280;53333;51.976;20.144;2023-02-28T01:52:22;101676.41;;;-1.61;56.56
36664;BME280;53333;51.976;20.144;2023-02-28T01:54:58;101683.28;;;-1.65;56.54
36664;BME280;53333;51.976;20.144;2023-02-28T01:57:34;101681.50;;;-1.67;56.58
36664;BME280;53333;51.976;20.144;2023-02-28T02:00:09;101683.16;;;-1.71;56.51
36664;BME280;53333;51.976;20.144;2023-02-28T02:02:46;101682.16;;;-1.74;56.52
36664;BME280;53333;51.976;20.144;2023-02-28T02:05:20;101681.22;;;-1.78;56.52
36664;BME280;53333;51.976;20.144;2023-02-28T02:07:54;101669.81;;;-1.80;56.58
36664;BME280;53333;51.976;20.144;2023-02-28T02:10:29;101674.09;;;-1.82;56.53
36664;BME280;53333;51.976;20.144;2023-02-28T02:16:10;101672.97;;;-1.92;56.59
36664;BME280;53333;51.976;20.144;2023-02-28T02:18:48;101672.91;;;-1.95;56.51
36664;BME280;53333;51.976;20.144;2023-02-28T02:21:32;101672.03;;;-1.95;56.60
36664;BME280;53333;51.976;20.144;2023-02-28T02:27:20;101665.75;;;-2.02;56.74
36664;BME280;53333;51.976;20.144;2023-02-28T02:30:08;101672.72;;;-2.03;56.74
36664;BME280;53333;51.976;20.144;2023-02-28T02:35:52;101670.03;;;-2.06;56.64
36664;BME280;53333;51.976;20.144;2023-02-28T02:38:29;101672.56;;;-2.09;56.73
36664;BME280;53333;51.976;20.144;2023-02-28T02:41:08;101676.03;;;-2.08;56.72
36664;BME280;53333;51.976;20.144;2023-02-28T02:43:44;101677.75;;;-2.10;56.72
36664;BME280;53333;51.976;20.144;2023-02-28T02:46:20;101685.59;;;-2.10;56.59
36664;BME280;53333;51.976;20.144;2023-02-28T02:48:54;101682.97;;;-2.10;56.51
36664;BME280;53333;51.976;20.144;2023-02-28T02:51:30;101682.91;;;-2.13;56.61
36664;BME280;53333;51.976;20.144;2023-02-28T02:54:05;101682.91;;;-2.13;56.67
36664;BME280;53333;51.976;20.144;2023-02-28T02:56:41;101689.81;;;-2.15;56.63
36664;BME280;53333;51.976;20.144;2023-02-28T02:59:16;101690.66;;;-2.16;56.66
36664;BME280;53333;51.976;20.144;2023-02-28T03:01:53;101686.31;;;-2.16;56.68
36664;BME280;53333;51.976;20.144;2023-02-28T03:04:30;101690.63;;;-2.18;56.44
36664;BME280;53333;51.976;20.144;2023-02-28T03:07:06;101686.13;;;-2.22;56.63
36664;BME280;53333;51.976;20.144;2023-02-28T03:09:38;101692.25;;;-2.23;56.63
36664;BME280;53333;51.976;20.144;2023-02-28T03:12:11;101686.91;;;-2.26;56.67
36664;BME280;53333;51.976;20.144;2023-02-28T03:14:50;101693.81;;;-2.28;56.66
36664;BME280;53333;51.976;20.144;2023-02-28T03:20:15;101695.38;;;-2.35;56.67
36664;BME280;53333;51.976;20.144;2023-02-28T03:22:57;101693.56;;;-2.38;56.66
36664;BME280;53333;51.976;20.144;2023-02-28T03:25:33;101686.50;;;-2.40;56.75
36664;BME280;53333;51.976;20.144;2023-02-28T03:28:10;101695.25;;;-2.40;56.75
36664;BME280;53333;51.976;20.144;2023-02-28T03:30:47;101699.63;;;-2.39;56.75
36664;BME280;53333;51.976;20.144;2023-02-28T03:33:26;101698.78;;;-2.39;56.51
36664;BME280;53333;51.976;20.144;2023-02-28T03:36:02;101703.09;;;-2.40;56.56
36664;BME280;53333;51.976;20.144;2023-02-28T03:38:38;101700.44;;;-2.41;56.53
36664;BME280;53333;51.976;20.144;2023-02-28T03:41:13;101706.53;;;-2.42;56.55
36664;BME280;53333;51.976;20.144;2023-02-28T03:43:48;101706.44;;;-2.45;56.64
36664;BME280;53333;51.976;20.144;2023-02-28T03:46:23;101702.00;;;-2.48;56.62
36664;BME280;53333;51.976;20.144;2023-02-28T03:48:59;101698.41;;;-2.51;56.57
36664;BME280;53333;51.976;20.144;2023-02-28T03:51:34;101702.72;;;-2.53;56.75
36664;BME280;53333;51.976;20.144;2023-02-28T03:54:11;101701.81;;;-2.54;56.73
36664;BME280;53333;51.976;20.144;2023-02-28T03:56:48;101711.41;;;-2.54;56.61
36664;BME280;53333;51.976;20.144;2023-02-28T03:59:25;101708.72;;;-2.56;56.55
36664;BME280;53333;51.976;20.144;2023-02-28T04:02:00;101719.06;;;-2.61;56.57
36664;BME280;53333;51.976;20.144;2023-02-28T04:04:32;101715.44;;;-2.66;56.78
36664;BME280;53333;51.976;20.144;2023-02-28T04:07:07;101714.44;;;-2.69;56.77
36664;BME280;53333;51.976;20.144;2023-02-28T04:09:41;101710.84;;;-2.73;56.85
36664;BME280;53333;51.976;20.144;2023-02-28T04:12:14;101710.75;;;-2.76;56.78
36664;BME280;53333;51.976;20.144;2023-02-28T04:14:46;101712.34;;;-2.81;56.89
36664;BME280;53333;51.976;20.144;2023-02-28T04:17:19;101714.84;;;-2.84;56.85
36664;BME280;53333;51.976;20.144;2023-02-28T04:19:52;101717.41;;;-2.86;56.86
36664;BME280;53333;51.976;20.144;2023-02-28T04:22:25;101717.28;;;-2.90;56.91
36664;BME280;53333;51.976;20.144;2023-02-28T04:24:59;101723.28;;;-2.95;56.84
36664;BME280;53333;51.976;20.144;2023-02-28T04:27:32;101725.69;;;-3.01;56.88
36664;BME280;53333;51.976;20.144;2023-02-28T04:30:05;101722.16;;;-3.03;56.93
36664;BME280;53333;51.976;20.144;2023-02-28T04:32:38;101725.59;;;-3.04;57.00
36664;BME280;53333;51.976;20.144;2023-02-28T04:35:11;101715.03;;;-3.07;56.96
36664;BME280;53333;51.976;20.144;2023-02-28T04:37:44;101714.09;;;-3.09;56.84
36664;BME280;53333;51.976;20.144;2023-02-28T04:40:18;101712.25;;;-3.12;56.84
36664;BME280;53333;51.976;20.144;2023-02-28T04:42:51;101723.53;;;-3.14;56.96
36664;BME280;53333;51.976;20.144;2023-02-28T04:45:24;101720.88;;;-3.16;56.94
36664;BME280;53333;51.976;20.144;2023-02-28T04:47:56;101718.19;;;-3.17;56.79
36664;BME280;53333;51.976;20.144;2023-02-28T04:50:29;101718.16;;;-3.19;56.96
36664;BME280;53333;51.976;20.144;2023-02-28T04:53:02;101722.38;;;-3.22;56.99
36664;BME280;53333;51.976;20.144;2023-02-28T04:55:36;101728.47;;;-3.23;56.95
36664;BME280;53333;51.976;20.144;2023-02-28T04:58:11;101727.53;;;-3.24;57.00
36664;BME280;53333;51.976;20.144;2023-02-28T05:00:44;101729.34;;;-3.23;56.84
36664;BME280;53333;51.976;20.144;2023-02-28T05:03:17;101726.66;;;-3.24;56.82
36664;BME280;53333;51.976;20.144;2023-02-28T05:05:49;101729.28;;;-3.24;56.94
36664;BME280;53333;51.976;20.144;2023-02-28T05:08:22;101726.66;;;-3.24;56.88
36664;BME280;53333;51.976;20.144;2023-02-28T05:10:56;101727.53;;;-3.24;56.88
36664;BME280;53333;51.976;20.144;2023-02-28T05:13:29;101729.28;;;-3.24;56.88
36664;BME280;53333;51.976;20.144;2023-02-28T05:16:02;101737.13;;;-3.24;56.81
36664;BME280;53333;51.976;20.144;2023-02-28T05:18:34;101742.34;;;-3.24;56.91
36664;BME280;53333;51.976;20.144;2023-02-28T05:21:14;101738.91;;;-3.23;56.76
36664;BME280;53333;51.976;20.144;2023-02-28T05:23:55;101748.50;;;-3.22;56.84
36664;BME280;53333;51.976;20.144;2023-02-28T05:26:30;101755.47;;;-3.23;56.79
36664;BME280;53333;51.976;20.144;2023-02-28T05:29:03;101746.75;;;-3.23;56.81
36664;BME280;53333;51.976;20.144;2023-02-28T05:31:36;101752.81;;;-3.24;56.82
36664;BME280;53333;51.976;20.144;2023-02-28T05:34:09;101750.31;;;-3.21;56.79
36664;BME280;53333;51.976;20.144;2023-02-28T05:36:42;101753.78;;;-3.21;56.70
36664;BME280;53333;51.976;20.144;2023-02-28T05:39:15;101752.09;;;-3.20;56.69
36664;BME280;53333;51.976;20.144;2023-02-28T05:41:49;101752.97;;;-3.20;56.67
36664;BME280;53333;51.976;20.144;2023-02-28T05:44:22;101740.88;;;-3.16;56.75
36664;BME280;53333;51.976;20.144;2023-02-28T05:46:54;101755.78;;;-3.14;56.72
36664;BME280;53333;51.976;20.144;2023-02-28T05:49:27;101754.16;;;-3.10;56.57
36664;BME280;53333;51.976;20.144;2023-02-28T05:52:00;101751.53;;;-3.10;56.60
36664;BME280;53333;51.976;20.144;2023-02-28T05:54:33;101751.59;;;-3.08;56.64
36664;BME280;53333;51.976;20.144;2023-02-28T05:57:07;101762.97;;;-3.06;56.64
36664;BME280;53333;51.976;20.144;2023-02-28T05:59:54;101763.97;;;-3.03;56.49
36664;BME280;53333;51.976;20.144;2023-02-28T06:02:27;101757.16;;;-2.98;56.69
36664;BME280;53333;51.976;20.144;2023-02-28T06:05:00;101763.44;;;-2.93;56.51
36664;BME280;53333;51.976;20.144;2023-02-28T06:07:33;101769.63;;;-2.89;56.40
36664;BME280;53333;51.976;20.144;2023-02-28T06:10:06;101772.44;;;-2.83;56.33
36664;BME280;53333;51.976;20.144;2023-02-28T06:12:40;101778.75;;;-2.76;56.35
36664;BME280;53333;51.976;20.144;2023-02-28T06:15:14;101780.75;;;-2.69;56.33
36664;BME280;53333;51.976;20.144;2023-02-28T06:17:47;101779.28;;;-2.59;56.28
36664;BME280;53333;51.976;20.144;2023-02-28T06:20:20;101776.13;;;-2.49;56.08
36664;BME280;53333;51.976;20.144;2023-02-28T06:22:52;101778.22;;;-2.37;56.13
36664;BME280;53333;51.976;20.144;2023-02-28T06:25:27;101771.72;;;-2.21;55.99
36664;BME280;53333;51.976;20.144;2023-02-28T06:28:02;101781.69;;;-2.08;55.98
36664;BME280;53333;51.976;20.144;2023-02-28T06:30:34;101769.81;;;-1.95;55.83
36664;BME280;53333;51.976;20.144;2023-02-28T06:33:12;101771.09;;;-1.80;55.86
36664;BME280;53333;51.976;20.144;2023-02-28T06:35:46;101769.81;;;-1.63;55.74
36664;BME280;53333;51.976;20.144;2023-02-28T06:38:18;101780.75;;;-1.46;55.57
36664;BME280;53333;51.976;20.144;2023-02-28T06:40:54;101778.50;;;-1.32;55.59
36664;BME280;53333;51.976;20.144;2023-02-28T06:43:29;101782.47;;;-1.13;55.39
36664;BME280;53333;51.976;20.144;2023-02-28T06:46:03;101780.28;;;-0.95;55.37
36664;BME280;53333;51.976;20.144;2023-02-28T06:48:36;101776.38;;;-0.76;55.15
36664;BME280;53333;51.976;20.144;2023-02-28T06:51:10;101776.91;;;-0.52;55.11
36664;BME280;53333;51.976;20.144;2023-02-28T06:53:44;101777.38;;;-0.31;54.92
36664;BME280;53333;51.976;20.144;2023-02-28T06:56:17;101776.94;;;-0.10;54.90
36664;BME280;53333;51.976;20.144;2023-02-28T06:58:53;101780.00;;;0.12;54.78
36664;BME280;53333;51.976;20.144;2023-02-28T07:01:25;101780.41;;;0.33;54.71
36664;BME280;53333;51.976;20.144;2023-02-28T07:04:00;101765.06;;;0.57;54.41
36664;BME280;53333;51.976;20.144;2023-02-28T07:06:32;101772.47;;;0.79;54.33
36664;BME280;53333;51.976;20.144;2023-02-28T07:09:08;101772.91;;;1.04;54.25
36664;BME280;53333;51.976;20.144;2023-02-28T07:11:42;101768.88;;;1.29;54.14
36664;BME280;53333;51.976;20.144;2023-02-28T07:14:16;101768.41;;;1.58;53.89
36664;BME280;53333;51.976;20.144;2023-02-28T07:16:49;101766.13;;;1.84;53.64
36664;BME280;53333;51.976;20.144;2023-02-28T07:19:24;101766.13;;;1.84;53.64
36664;BME280;53333;51.976;20.144;2023-02-28T07:21:58;101781.63;;;2.33;53.32
36664;BME280;53333;51.976;20.144;2023-02-28T07:24:31;101781.91;;;2.59;53.20
36664;BME280;53333;51.976;20.144;2023-02-28T07:27:04;101781.28;;;2.86;53.05
36664;BME280;53333;51.976;20.144;2023-02-28T07:29:38;101772.69;;;3.12;52.75
36664;BME280;53333;51.976;20.144;2023-02-28T07:32:11;101772.88;;;3.43;52.66
36664;BME280;53333;51.976;20.144;2023-02-28T07:34:43;101766.03;;;3.74;52.39
36664;BME280;53333;51.976;20.144;2023-02-28T07:37:16;101769.69;;;4.06;52.21
36664;BME280;53333;51.976;20.144;2023-02-28T07:39:49;101768.00;;;4.37;51.85
36664;BME280;53333;51.976;20.144;2023-02-28T07:42:22;101768.09;;;4.71;51.60
36664;BME280;53333;51.976;20.144;2023-02-28T07:44:56;101768.94;;;5.05;51.33
36664;BME280;53333;51.976;20.144;2023-02-28T07:47:30;101764.50;;;5.40;50.96
36664;BME280;53333;51.976;20.144;2023-02-28T07:50:03;101761.75;;;5.75;50.46
36664;BME280;53333;51.976;20.144;2023-02-28T07:52:36;101764.28;;;6.14;50.33
36664;BME280;53333;51.976;20.144;2023-02-28T07:55:09;101765.81;;;6.55;49.76
36664;BME280;53333;51.976;20.144;2023-02-28T07:57:42;101767.25;;;6.99;49.35
36664;BME280;53333;51.976;20.144;2023-02-28T08:00:17;101765.00;;;7.51;49.14
36664;BME280;53333;51.976;20.144;2023-02-28T08:02:50;101767.72;;;8.19;47.98
36664;BME280;53333;51.976;20.144;2023-02-28T08:05:23;101755.06;;;8.96;47.15
36664;BME280;53333;51.976;20.144;2023-02-28T08:07:56;101751.00;;;9.71;46.33
36664;BME280;53333;51.976;20.144;2023-02-28T08:10:29;101753.81;;;10.49;45.23
36664;BME280;53333;51.976;20.144;2023-02-28T08:13:02;101748.69;;;11.14;44.82
36664;BME280;53333;51.976;20.144;2023-02-28T08:15:36;101758.41;;;11.82;44.18
36664;BME280;53333;51.976;20.144;2023-02-28T08:18:09;101756.41;;;12.50;43.59
36664;BME280;53333;51.976;20.144;2023-02-28T08:20:42;101753.97;;;13.24;43.05
36664;BME280;53333;51.976;20.144;2023-02-28T08:23:15;101749.63;;;13.95;42.44
36664;BME280;53333;51.976;20.144;2023-02-28T08:25:52;101747.03;;;14.63;42.29
36664;BME280;53333;51.976;20.144;2023-02-28T08:28:25;101742.97;;;15.38;41.88
36664;BME280;53333;51.976;20.144;2023-02-28T08:30:59;101740.34;;;16.16;41.12
36664;BME280;53333;51.976;20.144;2023-02-28T08:33:32;101741.16;;;16.93;40.94
36664;BME280;53333;51.976;20.144;2023-02-28T08:36:05;101731.31;;;17.61;40.54
36664;BME280;53333;51.976;20.144;2023-02-28T08:38:41;101742.00;;;18.30;39.93
36664;BME280;53333;51.976;20.144;2023-02-28T08:41:14;101737.44;;;18.78;39.98
36664;BME280;53333;51.976;20.144;2023-02-28T08:43:47;101728.25;;;19.27;40.17
36664;BME280;53333;51.976;20.144;2023-02-28T08:46:22;101726.59;;;19.84;40.37
36664;BME280;53333;51.976;20.144;2023-02-28T08:48:55;101731.50;;;20.35;40.25
36664;BME280;53333;51.976;20.144;2023-02-28T08:51:30;101734.34;;;20.88;39.81
36664;BME280;53333;51.976;20.144;2023-02-28T08:54:03;101728.56;;;21.32;39.63
36664;BME280;53333;51.976;20.144;2023-02-28T08:56:36;101723.06;;;21.72;39.78
36664;BME280;53333;51.976;20.144;2023-02-28T08:59:09;101726.66;;;21.99;39.70
36664;BME280;53333;51.976;20.144;2023-02-28T09:01:43;101724.84;;;22.36;39.43
36664;BME280;53333;51.976;20.144;2023-02-28T09:04:16;101725.50;;;22.88;39.01
36664;BME280;53333;51.976;20.144;2023-02-28T09:06:51;101719.97;;;23.36;39.05
36664;BME280;53333;51.976;20.144;2023-02-28T09:09:24;101724.03;;;23.89;38.80
36664;BME280;53333;51.976;20.144;2023-02-28T09:11:57;101726.09;;;24.30;38.25
36664;BME280;53333;51.976;20.144;2023-02-28T09:14:30;101731.75;;;24.50;38.48
36664;BME280;53333;51.976;20.144;2023-02-28T09:17:04;101720.19;;;24.69;38.29
36664;BME280;53333;51.976;20.144;2023-02-28T09:19:37;101729.88;;;25.06;38.42
36664;BME280;53333;51.976;20.144;2023-02-28T09:22:10;101728.72;;;25.41;38.25
36664;BME280;53333;51.976;20.144;2023-02-28T09:24:43;101721.09;;;25.44;38.14
36664;BME280;53333;51.976;20.144;2023-02-28T09:27:16;101725.53;;;25.66;38.11
36664;BME280;53333;51.976;20.144;2023-02-28T09:29:49;101727.81;;;25.92;38.38
36664;BME280;53333;51.976;20.144;2023-02-28T09:32:23;101731.75;;;26.30;38.24
36664;BME280;53333;51.976;20.144;2023-02-28T09:34:56;101737.16;;;26.71;37.90
36664;BME280;53333;51.976;20.144;2023-02-28T09:37:29;101721.75;;;27.09;37.80
36664;BME280;53333;51.976;20.144;2023-02-28T09:40:02;101723.16;;;27.42;37.51
36664;BME280;53333;51.976;20.144;2023-02-28T09:42:35;101728.75;;;27.70;37.38
36664;BME280;53333;51.976;20.144;2023-02-28T09:45:21;101732.03;;;27.73;37.57
36664;BME280;53333;51.976;20.144;2023-02-28T09:47:58;101729.81;;;27.97;37.66
36664;BME280;53333;51.976;20.144;2023-02-28T09:50:33;101736.63;;;28.20;37.06
36664;BME280;53333;51.976;20.144;2023-02-28T09:53:11;101737.16;;;28.34;37.12
36664;BME280;53333;51.976;20.144;2023-02-28T09:55:48;101729.78;;;28.52;37.08
36664;BME280;53333;51.976;20.144;2023-02-28T09:58:24;101739.03;;;28.79;37.04
36664;BME280;53333;51.976;20.144;2023-02-28T10:00:59;101738.94;;;29.07;36.95
36664;BME280;53333;51.976;20.144;2023-02-28T10:03:36;101741.94;;;29.31;36.50
36664;BME280;53333;51.976;20.144;2023-02-28T10:06:13;101723.63;;;29.48;36.57
36664;BME280;53333;51.976;20.144;2023-02-28T10:08:50;101734.28;;;29.69;36.78
36664;BME280;53333;51.976;20.144;2023-02-28T10:11:26;101723.88;;;29.81;36.49
36664;BME280;53333;51.976;20.144;2023-02-28T10:14:00;101735.72;;;30.08;36.44
36664;BME280;53333;51.976;20.144;2023-02-28T10:16:36;101740.06;;;30.19;36.53
36664;BME280;53333;51.976;20.144;2023-02-28T10:19:13;101742.47;;;30.22;36.63
36664;BME280;53333;51.976;20.144;2023-02-28T10:21:48;101744.44;;;30.38;36.51
36664;BME280;53333;51.976;20.144;2023-02-28T10:24:28;101747.69;;;30.33;36.65
36664;BME280;53333;51.976;20.144;2023-02-28T10:27:04;101739.28;;;30.35;36.45
36664;BME280;53333;51.976;20.144;2023-02-28T10:29:39;101741.34;;;30.41;36.68
36664;BME280;53333;51.976;20.144;2023-02-28T10:32:16;101738.81;;;30.48;36.59
36664;BME280;53333;51.976;20.144;2023-02-28T10:34:52;101741.41;;;30.49;36.83
36664;BME280;53333;51.976;20.144;2023-02-28T10:37:27;101740.88;;;30.54;36.66
36664;BME280;53333;51.976;20.144;2023-02-28T10:40:00;101741.28;;;30.67;36.73
36664;BME280;53333;51.976;20.144;2023-02-28T10:42:32;101737.00;;;30.81;36.82
36664;BME280;53333;51.976;20.144;2023-02-28T10:45:11;101734.78;;;31.01;36.28
36664;BME280;53333;51.976;20.144;2023-02-28T10:47:51;101730.47;;;31.31;36.04
36664;BME280;53333;51.976;20.144;2023-02-28T10:50:32;101727.16;;;31.61;35.74
36664;BME280;53333;51.976;20.144;2023-02-28T10:53:28;101729.00;;;31.85;35.78
36664;BME280;53333;51.976;20.144;2023-02-28T10:56:14;101724.97;;;32.12;35.53
36664;BME280;53333;51.976;20.144;2023-02-28T10:58:49;101718.69;;;32.27;35.32
36664;BME280;53333;51.976;20.144;2023-02-28T11:01:23;101726.25;;;32.25;35.46
36664;BME280;53333;51.976;20.144;2023-02-28T11:03:56;101720.66;;;32.01;35.84
36664;BME280;53333;51.976;20.144;2023-02-28T11:06:31;101718.69;;;31.71;36.34
36664;BME280;53333;51.976;20.144;2023-02-28T11:09:05;101714.75;;;31.48;36.64
36664;BME280;53333;51.976;20.144;2023-02-28T11:11:48;101715.81;;;31.06;36.82
36664;BME280;53333;51.976;20.144;2023-02-28T11:14:22;101714.72;;;30.66;37.03
36664;BME280;53333;51.976;20.144;2023-02-28T11:16:57;101715.50;;;30.34;37.26
36664;BME280;53333;51.976;20.144;2023-02-28T11:19:34;101711.38;;;30.38;37.27
36664;BME280;53333;51.976;20.144;2023-02-28T11:22:15;101706.22;;;30.35;37.49
36664;BME280;53333;51.976;20.144;2023-02-28T11:24:51;101695.13;;;30.18;37.76
36664;BME280;53333;51.976;20.144;2023-02-28T11:27:26;101691.91;;;29.62;38.17
36664;BME280;53333;51.976;20.144;2023-02-28T11:29:59;101695.81;;;28.89;38.71
36664;BME280;53333;51.976;20.144;2023-02-28T11:32:31;101687.19;;;28.48;39.30
36664;BME280;53333;51.976;20.144;2023-02-28T11:35:14;101681.44;;;27.48;40.15
36664;BME280;53333;51.976;20.144;2023-02-28T11:37:51;101681.09;;;26.65;40.86
36664;BME280;53333;51.976;20.144;2023-02-28T11:40:30;101682.84;;;26.06;41.34
36664;BME280;53333;51.976;20.144;2023-02-28T11:43:08;101672.22;;;25.61;41.81
36664;BME280;53333;51.976;20.144;2023-02-28T11:45:51;101673.75;;;25.44;41.54
36664;BME280;53333;51.976;20.144;2023-02-28T11:48:31;101662.63;;;25.35;41.59
36664;BME280;53333;51.976;20.144;2023-02-28T11:51:08;101669.19;;;25.54;41.31
36664;BME280;53333;51.976;20.144;2023-02-28T11:53:53;101664.66;;;25.64;41.04
36664;BME280;53333;51.976;20.144;2023-02-28T11:56:32;101658.38;;;26.24;40.28
36664;BME280;53333;51.976;20.144;2023-02-28T11:59:11;101643.28;;;26.88;39.39
36664;BME280;53333;51.976;20.144;2023-02-28T12:01:54;101649.75;;;27.64;38.63
36664;BME280;53333;51.976;20.144;2023-02-28T12:04:34;101655.53;;;28.44;37.87
36664;BME280;53333;51.976;20.144;2023-02-28T12:07:15;101646.50;;;29.06;37.12
36664;BME280;53333;51.976;20.144;2023-02-28T12:09:55;101647.19;;;29.60;36.83
36664;BME280;53333;51.976;20.144;2023-02-28T12:12:34;101645.13;;;29.88;36.53
36664;BME280;53333;51.976;20.144;2023-02-28T12:15:32;101635.31;;;29.94;36.79
36664;BME280;53333;51.976;20.144;2023-02-28T12:18:13;101634.16;;;30.05;36.55
36664;BME280;53333;51.976;20.144;2023-02-28T12:20:49;101636.91;;;30.05;36.51
36664;BME280;53333;51.976;20.144;2023-02-28T12:23:42;101638.66;;;30.14;36.42
36664;BME280;53333;51.976;20.144;2023-02-28T12:26:21;101633.16;;;30.31;36.51
36664;BME280;53333;51.976;20.144;2023-02-28T12:28:57;101625.50;;;30.51;36.51
36664;BME280;53333;51.976;20.144;2023-02-28T12:31:33;101619.13;;;30.75;36.06
36664;BME280;53333;51.976;20.144;2023-02-28T12:34:09;101625.66;;;30.82;35.97
36664;BME280;53333;51.976;20.144;2023-02-28T12:36:44;101618.94;;;30.76;36.01
36664;BME280;53333;51.976;20.144;2023-02-28T12:39:19;101625.50;;;30.51;36.47
36664;BME280;53333;51.976;20.144;2023-02-28T12:41:56;101623.47;;;30.10;37.04
36664;BME280;53333;51.976;20.144;2023-02-28T12:44:34;101618.09;;;29.84;37.16
36664;BME280;53333;51.976;20.144;2023-02-28T12:47:09;101611.06;;;29.55;37.71
36664;BME280;53333;51.976;20.144;2023-02-28T12:49:44;101619.19;;;29.39;37.84
36664;BME280;53333;51.976;20.144;2023-02-28T12:52:20;101612.34;;;29.43;37.69
36664;BME280;53333;51.976;20.144;2023-02-28T12:54:56;101606.78;;;29.08;38.02
36664;BME280;53333;51.976;20.144;2023-02-28T12:57:38;101605.59;;;28.85;38.38
36664;BME280;53333;51.976;20.144;2023-02-28T13:00:15;101598.75;;;28.89;38.27
36664;BME280;53333;51.976;20.144;2023-02-28T13:02:59;101594.75;;;28.83;38.46
36664;BME280;53333;51.976;20.144;2023-02-28T13:08:37;101584.84;;;28.64;38.71
36664;BME280;53333;51.976;20.144;2023-02-28T13:11:24;101589.06;;;28.40;38.78
36664;BME280;53333;51.976;20.144;2023-02-28T13:14:01;101580.78;;;28.22;38.91
36664;BME280;53333;51.976;20.144;2023-02-28T13:16:52;101587.94;;;28.15;38.93
36664;BME280;53333;51.976;20.144;2023-02-28T13:19:27;101587.94;;;28.15;38.91
36664;BME280;53333;51.976;20.144;2023-02-28T13:22:01;101585.59;;;28.20;38.77
36664;BME280;53333;51.976;20.144;2023-02-28T13:33:22;101577.69;;;26.67;40.11
36664;BME280;53333;51.976;20.144;2023-02-28T13:36:09;101577.41;;;26.31;40.29
36664;BME280;53333;51.976;20.144;2023-02-28T13:38:43;101575.66;;;26.20;40.35
36664;BME280;53333;51.976;20.144;2023-02-28T13:41:40;101574.47;;;26.03;40.42
36664;BME280;53333;51.976;20.144;2023-02-28T13:44:14;101576.00;;;25.86;40.42
36664;BME280;53333;51.976;20.144;2023-02-28T13:49:40;101581.34;;;25.16;41.34
36664;BME280;53333;51.976;20.144;2023-02-28T13:52:15;101579.47;;;24.54;41.92